Brownfield, ME (04010)

4:18 PM EDT on July 07, 2015 (GMT -0400)
misty lane | | Change Station
CLOSE
Current Station
Personal Weather Station
Location: Brownfield, ME
Elevation: 404 ft
Nearby Weather Stations

Elev 404 ft 43.94 °N, 70.87 °W | Updated 13 minutes ago

Overcast
Overcast
77.8 °F
Feels Like 80 °F
N
3.0
Wind Variable Wind from SW
Gusts 7.0 mph

Today
High -- | Low -- °F
--% Chance of Precip.
Yesterday
High -- | Low -- °F
Precip. -- in
5:08 AM 8:28 PM
Waning Gibbous, 61% visible
Pressure 29.96 in
Visibility 10.0 miles
Clouds Few 3700 ft
Scattered Clouds 6000 ft
Overcast 7500 ft
Heat Index 80 °F
Dew Point 74 °F
Humidity 87%
Rainfall 0.03 in
Snow Depth Not available.
UV 2 out of 12
Pollen 3.20 out of 12
Air Quality Not available.
Flu Activity Not available.
METAR KIZG 071954Z AUTO 00000KT 10SM FEW037 SCT060 OVC075 26/23 A2997 RMK AO2 RAB26E45 SLP146 P0004 T02560228

More Conditions Fewer Conditions

Pressure 29.96 in
Visibility 10.0 miles
Clouds Few 3700 ft
Scattered Clouds 6000 ft
Overcast 7500 ft
Heat Index 80 °F
Dew Point 74 °F
Humidity 87%
Rainfall 0.03 in
Snow Depth Not available.
UV 2 out of 12
Pollen 3.20 out of 12
Air Quality Not available.
Flu Activity Not available.
METAR KIZG 071954Z AUTO 00000KT 10SM FEW037 SCT060 OVC075 26/23 A2997 RMK AO2 RAB26E45 SLP146 P0004 T02560228

More Conditions Fewer Conditions

10-Day Weather Forecast

×

Almanac

Astronomy

Jul. 07, 2015 Rise Set
Actual Time
Civil Twilight
Nautical Twilight
Astronomical Twilight
Moon
Length of Visible Light
Length of Day
Tomorrow will be .
, % of the Moon is Illuminated

Today's Extremes

State Highs State Lows

Community

WunderPhotos

Upload Photos

1,835,884 photos uploaded!

WunderBlogs® & News

Nearby

Air Quality

  Air Quality AQ Index Pollutant
Not available.

Snow Depth

Station Depth Elevation

Earthquake Activity

City Distance Mag. Time & Date
Minimum magnitude displayed is 2.5.

Coastal Water Temperatures

Place Temperature

Stations

Nearby Weather Stations

Station Location Temp. Windchill Dew Point Humidity Wind Precip. Elev Updated Type